Terminal Aerodrome Forecast
Issued by NWS

Home | Current Version | Previous Version | Text Only | Print | Product List | Glossary On
Versions: 1 2 3 4 5 6 7 8 9 10 11 12 13 14
244
FTUS43 KMPX 240520
TAFRNH
TAF
KRNH 240520Z 2406/2506 VRB03KT P6SM -SHRA OVC100
     FM241000 11005KT P6SM BKN090
     FM241600 12006KT P6SM SCT120=

USA.gov is the U.S. government's official web portal to all federal, state and local government web resources and services.